KLWB

Greenbrier Valley Airport

Lewisburg, West Virginia, USA
METAR KLWB 212255Z AUTO 00000KT 10SM SCT060 SCT080 BKN110 20/18 A2998 RMK AO2 LTG DSNT NE S AND NW P0001 T01960183
Observed Flight Rules
Aug-21 @ 22:55 UTC (50 minutes ago) Visual Flight Rules
Visibility Clouds
10 miles
  • Scattered at 6,000' AGL
  • Scattered at 8,000' AGL
  • Broken at 11,000' AGL
Temperatures Readings Precipitation
Current 20°C / 68°F
Dewpoint 18°C / 64°F
Humidity 88%
Altimeter 29.98" Hg
Pressure 1015 hPa
Elevation 702
Current Rain 0.01
METAR KLWB 212255Z AUTO 00000KT 10SM SCT060 SCT080 BKN110 20/18 A2998 RMK AO2 LTG DSNT NE S AND NW P0001 T01960183
Observed Flight Rules
Aug-21 @ 22:55 UTC
(50 minutes ago)
VFR
Clouds
  • Scattered at 6,000' AGL
  • Scattered at 8,000' AGL
  • Broken at 11,000' AGL
Temperature Dewpoint
20°C / 68°F 18°C / 64°F
Humidity Altimeter Pressure
88% 29.98" Hg 1015 hPa
Current Rain
0.01